Accueil
METAR-TAF:

METAR-TAF

Aéroports :

Aéroport international de Chengdu-Shuangliu

Chengdu, Chine

latitude: 30-40N, longitude: 104-01E, altitude: 508 m

Observation

Le bulletin a été fait il y a 35 minutes, à 02:00 UTC
Vent calme
Température 8°C
Humidité 87%
Pression 1021 hPa
Visibilité: 5000 m
Nuages épars à une hauteur de 5000 ft
brume

METAR: ZUUU 220200Z 00000MPS 5000 BR SCT050 08/06 Q1021 NOSIG

Heure: 10:35 (02:35 UTC)

Prévision

Le bulletin a été fait il y a 6 heures et 34 minutes, à 20:01 UTC
Prévision valable du 22 à 00 UTC au 22 à 24 UTC
Vent 6 kt de nord/nord-est
Visibilité: 3000 m
Nuages épars à une hauteur de 5000 ft
brume

TAF: ZUUU 212001Z 2200/2224 02003MPS 3000 BR SCT050 TX11/2207Z TN04/2200Z

Observations et prévisions météorologiques de plus de 4000 aéroports (messages METAR et TAF).

Les stations disponibles sont représentées par des disques jaunes et rouges sur la carte.

Passer la souris dessus pour voir le nom de la station.

Cliquer dessus pour voir les observations et prévisions météorologiques.

Pour changer de carte: cliquez sur les boutons verts avec une croix noire pour zoomer, sur le bouton vert avec un tiret pour effectuer un zoom arrière, ou sur les flèches vertes pour les cartes adjacentes.


METAR-TAF: